createdAt,value
2019-05-25T00:00:35.479Z,14.4
2019-05-25T00:01:36.876Z,14.4
2019-05-25T00:02:38.267Z,14.4
2019-05-25T00:03:39.657Z,14.3
2019-05-25T00:04:41.070Z,14.3
2019-05-25T00:05:42.467Z,14.2
2019-05-25T00:06:43.856Z,14.3
2019-05-25T00:07:45.245Z,14.2
2019-05-25T00:08:46.637Z,14.3
2019-05-25T00:09:48.536Z,14.3
2019-05-25T00:10:49.376Z,14.2
2019-05-25T00:11:50.769Z,14.2
2019-05-25T00:12:52.158Z,14.2
2019-05-25T00:13:53.547Z,14.2
2019-05-25T00:14:54.936Z,14.1
2019-05-25T00:15:56.328Z,14.1
2019-05-25T00:16:57.724Z,14.1
2019-05-25T00:17:59.121Z,14.1
2019-05-25T00:19:00.519Z,14.0
2019-05-25T00:20:01.939Z,14.0
2019-05-25T00:21:03.301Z,14.0
2019-05-25T00:22:04.691Z,14.0
2019-05-25T00:23:06.215Z,14.0
2019-05-25T00:24:12.182Z,14.0
2019-05-25T00:25:09.080Z,14.0
2019-05-25T00:26:10.471Z,14.1
2019-05-25T00:27:11.861Z,14.0
2019-05-25T00:28:13.256Z,14.0
2019-05-25T00:29:14.660Z,14.0
2019-05-25T00:30:16.064Z,14.0
2019-05-25T00:31:17.452Z,14.0
2019-05-25T00:32:18.840Z,14.0
2019-05-25T00:33:20.235Z,14.0
2019-05-25T00:34:21.699Z,14.0
2019-05-25T00:35:23.079Z,14.0
2019-05-25T00:36:24.466Z,14.0
2019-05-25T00:37:25.877Z,14.0
2019-05-25T00:38:27.277Z,13.9
2019-05-25T00:39:28.680Z,13.9
2019-05-25T00:40:30.050Z,13.9
2019-05-25T00:41:31.445Z,13.9
2019-05-25T00:42:32.831Z,13.8
2019-05-25T00:43:34.224Z,13.9
2019-05-25T00:44:35.610Z,13.8
2019-05-25T00:45:36.999Z,13.8
2019-05-25T00:46:38.390Z,13.8
2019-05-25T00:47:39.743Z,13.8
2019-05-25T00:48:41.192Z,13.7
2019-05-25T00:49:42.575Z,13.8
2019-05-25T00:50:43.968Z,13.7
2019-05-25T00:51:45.352Z,13.7
2019-05-25T00:52:46.743Z,13.6
2019-05-25T00:53:48.152Z,13.6
2019-05-25T00:54:49.546Z,13.6
2019-05-25T00:55:50.962Z,13.5
2019-05-25T00:56:52.374Z,13.5
2019-05-25T00:57:53.775Z,13.5
2019-05-25T00:58:55.167Z,13.5
2019-05-25T00:59:56.560Z,13.4
2019-05-25T01:00:57.989Z,13.4
2019-05-25T01:01:59.292Z,13.4
2019-05-25T01:03:00.682Z,13.4
2019-05-25T01:04:02.089Z,13.4
2019-05-25T01:05:03.496Z,13.4
2019-05-25T01:06:04.885Z,13.4
2019-05-25T01:07:06.273Z,13.3
2019-05-25T01:08:07.664Z,13.3
2019-05-25T01:09:09.060Z,13.2
2019-05-25T01:10:10.443Z,13.3
2019-05-25T01:11:11.867Z,13.2
2019-05-25T01:12:13.315Z,13.2
2019-05-25T01:13:14.867Z,13.1
2019-05-25T01:14:16.257Z,13.2
2019-05-25T01:15:17.648Z,13.2
2019-05-25T01:16:19.047Z,13.1
2019-05-25T01:17:20.432Z,13.1
2019-05-25T01:18:21.815Z,13.1
2019-05-25T01:19:23.209Z,13.1
2019-05-25T01:20:24.595Z,13.0
2019-05-25T01:21:26.007Z,13.1
2019-05-25T01:22:27.420Z,13.1
2019-05-25T01:23:28.810Z,13.1
2019-05-25T01:24:43.227Z,13.1
2019-05-25T01:25:31.551Z,13.1
2019-05-25T01:26:32.938Z,13.0
2019-05-25T01:27:34.336Z,12.9
2019-05-25T01:28:37.782Z,13.0
2019-05-25T01:29:37.081Z,13.1
2019-05-25T01:30:38.473Z,13.0
2019-05-25T01:31:39.863Z,13.0
2019-05-25T01:32:41.314Z,13.0
2019-05-25T01:33:42.716Z,12.9
2019-05-25T01:34:44.102Z,13.0
2019-05-25T01:35:45.531Z,12.9
2019-05-25T01:36:46.927Z,12.9
2019-05-25T01:37:48.773Z,12.9
2019-05-25T01:38:49.678Z,12.9
2019-05-25T01:39:51.064Z,12.9
2019-05-25T01:40:52.455Z,12.9
2019-05-25T01:41:53.842Z,12.9
2019-05-25T01:42:55.231Z,12.9
2019-05-25T01:43:56.617Z,12.9
2019-05-25T01:44:58.007Z,12.9
2019-05-25T01:45:59.398Z,12.9
2019-05-25T01:47:00.787Z,12.9
2019-05-25T01:48:02.191Z,12.9
2019-05-25T01:49:03.601Z,12.9
2019-05-25T01:50:04.975Z,12.8
2019-05-25T01:51:06.365Z,12.9
2019-05-25T01:52:07.770Z,12.9
2019-05-25T01:53:11.537Z,12.9
2019-05-25T01:54:10.512Z,12.9
2019-05-25T01:55:11.903Z,12.9
2019-05-25T01:56:13.290Z,12.9
2019-05-25T01:57:14.679Z,12.9
2019-05-25T01:58:16.068Z,12.9
2019-05-25T01:59:17.463Z,12.9
2019-05-25T02:00:18.848Z,12.9
2019-05-25T02:01:20.375Z,12.9
2019-05-25T02:02:21.849Z,12.9
2019-05-25T02:03:23.237Z,12.8
2019-05-25T02:04:24.630Z,13.0
2019-05-25T02:05:26.017Z,12.9
2019-05-25T02:06:27.406Z,12.9
2019-05-25T02:07:28.798Z,12.9
2019-05-25T02:08:30.183Z,12.8
2019-05-25T02:09:31.572Z,13.0
2019-05-25T02:10:32.961Z,12.9
2019-05-25T02:11:34.350Z,12.9
2019-05-25T02:12:35.741Z,12.8
2019-05-25T02:13:37.125Z,12.8
2019-05-25T02:14:38.518Z,12.8
2019-05-25T02:15:39.905Z,12.8
2019-05-25T02:16:41.292Z,12.7
2019-05-25T02:17:42.682Z,12.7
2019-05-25T02:18:45.751Z,12.7
2019-05-25T02:19:45.434Z,12.7
2019-05-25T02:20:46.858Z,12.7
2019-05-25T02:21:48.264Z,12.7
2019-05-25T02:22:49.651Z,12.7
2019-05-25T02:23:51.040Z,12.8
2019-05-25T02:24:52.446Z,12.7
2019-05-25T02:25:53.837Z,12.7
2019-05-25T02:26:55.361Z,12.6
2019-05-25T02:27:56.579Z,12.6
2019-05-25T02:28:57.971Z,12.5
2019-05-25T02:29:59.356Z,12.6
2019-05-25T02:31:00.747Z,12.6
2019-05-25T02:32:02.133Z,12.6
2019-05-25T02:33:03.525Z,12.7
2019-05-25T02:34:04.913Z,12.6
2019-05-25T02:35:06.307Z,12.6
2019-05-25T02:36:07.697Z,12.6
2019-05-25T02:37:09.082Z,12.5
2019-05-25T02:38:10.468Z,12.5
2019-05-25T02:39:11.857Z,12.5
2019-05-25T02:40:13.250Z,12.5
2019-05-25T02:41:14.633Z,12.5
2019-05-25T02:42:16.023Z,12.4
2019-05-25T02:43:17.411Z,12.5
2019-05-25T02:44:18.798Z,12.5
2019-05-25T02:45:20.189Z,12.4
2019-05-25T02:46:21.575Z,12.4
2019-05-25T02:47:22.965Z,12.4
2019-05-25T02:48:24.355Z,12.3
2019-05-25T02:49:25.740Z,12.3
2019-05-25T02:50:27.130Z,12.3
2019-05-25T02:51:28.606Z,12.3
2019-05-25T02:52:29.996Z,12.3
2019-05-25T02:53:31.384Z,12.2
2019-05-25T02:54:32.769Z,12.2
2019-05-25T02:55:35.078Z,12.3
2019-05-25T02:56:35.509Z,12.3
2019-05-25T02:57:36.899Z,12.2
2019-05-25T02:58:38.283Z,12.2
2019-05-25T02:59:39.672Z,12.1
2019-05-25T03:00:41.054Z,12.2
2019-05-25T03:01:42.445Z,12.1
2019-05-25T03:02:43.888Z,12.1
2019-05-25T03:03:45.274Z,12.1
2019-05-25T03:04:46.674Z,12.2
2019-05-25T03:05:48.054Z,12.1
2019-05-25T03:06:49.441Z,12.1
2019-05-25T03:07:50.829Z,12.1
2019-05-25T03:08:52.216Z,12.1
2019-05-25T03:09:53.606Z,12.1
2019-05-25T03:10:54.993Z,12.0
2019-05-25T03:11:56.382Z,12.0
2019-05-25T03:12:57.768Z,12.1
2019-05-25T03:13:59.158Z,12.0
2019-05-25T03:15:00.611Z,12.0
2019-05-25T03:16:01.904Z,12.0
2019-05-25T03:17:03.381Z,12.0
2019-05-25T03:18:04.651Z,12.0
2019-05-25T03:19:06.043Z,11.9
2019-05-25T03:20:07.437Z,12.0
2019-05-25T03:21:08.826Z,12.0
2019-05-25T03:22:10.214Z,12.0
2019-05-25T03:23:11.606Z,12.0
2019-05-25T03:24:12.993Z,12.0
2019-05-25T03:25:14.384Z,12.0
2019-05-25T03:26:15.775Z,12.0
2019-05-25T03:27:17.163Z,12.0
2019-05-25T03:28:18.552Z,11.9
2019-05-25T03:29:19.938Z,11.9
2019-05-25T03:30:21.350Z,11.9
2019-05-25T03:31:22.717Z,11.9
2019-05-25T03:32:24.108Z,11.9
2019-05-25T03:33:25.500Z,12.0
2019-05-25T03:34:26.885Z,11.9
2019-05-25T03:35:28.301Z,11.9
2019-05-25T03:36:29.667Z,11.9
2019-05-25T03:37:31.054Z,12.0
2019-05-25T03:38:32.443Z,12.0
2019-05-25T03:39:33.833Z,11.9
2019-05-25T03:40:35.305Z,12.0
2019-05-25T03:41:36.840Z,12.0
2019-05-25T03:42:38.228Z,11.8
2019-05-25T03:43:39.619Z,11.9
2019-05-25T03:44:41.007Z,11.9
2019-05-25T03:45:42.398Z,11.9
2019-05-25T03:46:43.788Z,11.9
2019-05-25T03:47:45.181Z,11.9
2019-05-25T03:48:46.568Z,11.9
2019-05-25T03:49:47.950Z,11.9
2019-05-25T03:50:49.337Z,11.9
2019-05-25T03:51:50.731Z,11.7
2019-05-25T03:52:52.114Z,11.8
2019-05-25T03:53:53.503Z,11.8
2019-05-25T03:54:54.895Z,11.7
2019-05-25T03:56:05.423Z,11.7
2019-05-25T03:56:57.634Z,11.7
2019-05-25T03:57:59.021Z,11.7
2019-05-25T03:59:00.408Z,11.7
2019-05-25T04:00:01.802Z,11.7
2019-05-25T04:01:03.188Z,11.6
2019-05-25T04:02:04.588Z,11.7
2019-05-25T04:03:05.973Z,11.6
2019-05-25T04:04:07.360Z,11.6
2019-05-25T04:05:08.749Z,11.6
2019-05-25T04:06:10.141Z,11.6
2019-05-25T04:07:11.586Z,11.6
2019-05-25T04:08:12.925Z,11.6
2019-05-25T04:09:14.320Z,11.6
2019-05-25T04:10:15.706Z,11.6
2019-05-25T04:11:17.090Z,11.6
2019-05-25T04:12:18.481Z,11.6
2019-05-25T04:13:19.871Z,11.6
2019-05-25T04:14:21.260Z,11.6
2019-05-25T04:15:22.666Z,11.6
2019-05-25T04:16:24.057Z,11.6
2019-05-25T04:17:25.446Z,11.6
2019-05-25T04:18:26.833Z,11.6
2019-05-25T04:19:28.232Z,11.6
2019-05-25T04:20:29.625Z,11.6
2019-05-25T04:21:31.012Z,11.6
2019-05-25T04:22:32.407Z,11.6
2019-05-25T04:23:33.821Z,11.6
2019-05-25T04:24:35.210Z,11.6
2019-05-25T04:25:36.601Z,11.6
2019-05-25T04:26:37.988Z,11.6
2019-05-25T04:27:39.379Z,11.6
2019-05-25T04:28:40.775Z,11.6
2019-05-25T04:29:42.166Z,11.6
2019-05-25T04:30:43.763Z,11.6
2019-05-25T04:31:45.149Z,11.6
2019-05-25T04:32:46.546Z,11.6
2019-05-25T04:33:47.930Z,11.7
2019-05-25T04:34:49.322Z,11.7
2019-05-25T04:35:50.721Z,11.7
2019-05-25T04:36:52.112Z,11.7
2019-05-25T04:37:53.505Z,11.7
2019-05-25T04:38:54.904Z,11.7
2019-05-25T04:39:56.293Z,11.7
2019-05-25T04:40:57.684Z,11.8
2019-05-25T04:41:59.095Z,11.7
2019-05-25T04:43:00.491Z,11.8
2019-05-25T04:44:01.879Z,11.8
2019-05-25T04:45:03.346Z,11.8
2019-05-25T04:46:04.632Z,11.8
2019-05-25T04:47:06.020Z,11.8
2019-05-25T04:48:07.410Z,11.9
2019-05-25T04:49:08.800Z,11.8
2019-05-25T04:50:10.189Z,11.8
2019-05-25T04:51:11.655Z,11.9
2019-05-25T04:52:13.011Z,11.9
2019-05-25T04:53:14.399Z,12.0
2019-05-25T04:54:15.787Z,12.0
2019-05-25T04:55:17.178Z,11.9
2019-05-25T04:56:18.599Z,11.9
2019-05-25T04:57:19.971Z,11.9
2019-05-25T04:58:21.372Z,11.9
2019-05-25T04:59:22.753Z,11.9
2019-05-25T05:00:24.143Z,11.9
2019-05-25T05:01:25.531Z,11.9
2019-05-25T05:02:26.924Z,11.9
2019-05-25T05:03:28.315Z,11.9
2019-05-25T05:04:29.713Z,11.8
2019-05-25T05:05:31.107Z,11.9
2019-05-25T05:06:32.496Z,11.9
2019-05-25T05:07:33.890Z,12.0
2019-05-25T05:08:35.732Z,12.0
2019-05-25T05:09:36.637Z,12.0
2019-05-25T05:10:38.025Z,12.0
2019-05-25T05:11:39.415Z,12.1
2019-05-25T05:12:40.809Z,12.0
2019-05-25T05:13:42.210Z,12.1
2019-05-25T05:14:43.597Z,12.1
2019-05-25T05:15:45.643Z,12.2
2019-05-25T05:16:47.038Z,12.1
2019-05-25T05:17:48.431Z,12.1
2019-05-25T05:18:49.939Z,12.3
2019-05-25T05:19:51.435Z,12.3
2019-05-25T05:20:52.827Z,12.4
2019-05-25T05:21:54.216Z,12.4
2019-05-25T05:22:55.601Z,12.4
2019-05-25T05:23:57.003Z,12.4
2019-05-25T05:24:58.395Z,12.5
2019-05-25T05:25:59.785Z,12.5
2019-05-25T05:27:01.177Z,12.5
2019-05-25T05:28:02.570Z,12.5
2019-05-25T05:29:03.959Z,12.5
2019-05-25T05:30:05.356Z,12.6
2019-05-25T05:31:22.458Z,12.6
2019-05-25T05:32:08.099Z,12.7
2019-05-25T05:33:09.490Z,12.7
2019-05-25T05:34:10.881Z,12.7
2019-05-25T05:35:12.279Z,12.8
2019-05-25T05:36:13.665Z,12.8
2019-05-25T05:37:15.053Z,12.9
2019-05-25T05:38:16.444Z,13.0
2019-05-25T05:39:17.837Z,12.9
2019-05-25T05:40:19.227Z,13.0
2019-05-25T05:41:20.618Z,12.9
2019-05-25T05:42:22.014Z,13.0
2019-05-25T05:43:23.405Z,12.9
2019-05-25T05:44:24.790Z,13.0
2019-05-25T05:45:26.182Z,13.0
2019-05-25T05:46:27.587Z,13.1
2019-05-25T05:47:28.980Z,13.0
2019-05-25T05:48:30.369Z,13.1
2019-05-25T05:49:31.766Z,13.2
2019-05-25T05:50:33.158Z,13.1
2019-05-25T05:51:34.547Z,13.1
2019-05-25T05:52:35.936Z,13.1
2019-05-25T05:53:37.329Z,13.0
2019-05-25T05:54:38.719Z,13.1
2019-05-25T05:55:40.114Z,13.1
2019-05-25T05:56:41.509Z,13.2
2019-05-25T05:57:42.894Z,13.1
2019-05-25T05:58:44.285Z,13.2
2019-05-25T05:59:45.678Z,13.3
2019-05-25T06:00:47.069Z,13.2
2019-05-25T06:01:48.471Z,13.3
2019-05-25T06:02:49.851Z,13.3
2019-05-25T06:03:51.245Z,13.3
2019-05-25T06:04:52.633Z,13.4
2019-05-25T06:05:54.024Z,13.5
2019-05-25T06:06:55.436Z,13.5
2019-05-25T06:07:56.908Z,13.6
2019-05-25T06:08:58.331Z,13.5
2019-05-25T06:09:59.727Z,13.5
2019-05-25T06:11:01.133Z,13.5
2019-05-25T06:12:02.520Z,13.6
2019-05-25T06:13:03.914Z,13.6
2019-05-25T06:14:05.304Z,13.6
2019-05-25T06:15:06.703Z,13.6
2019-05-25T06:16:08.097Z,13.7
2019-05-25T06:17:09.494Z,13.8
2019-05-25T06:18:10.924Z,13.8
2019-05-25T06:19:12.238Z,13.8
2019-05-25T06:20:13.629Z,13.9
2019-05-25T06:21:15.023Z,13.9
2019-05-25T06:22:16.418Z,14.0
2019-05-25T06:23:17.816Z,14.0
2019-05-25T06:24:19.213Z,14.0
2019-05-25T06:25:20.607Z,14.0
2019-05-25T06:26:22.009Z,14.0
2019-05-25T06:27:27.371Z,14.1
2019-05-25T06:28:24.787Z,14.1
2019-05-25T06:29:26.180Z,14.3
2019-05-25T06:30:27.572Z,14.4
2019-05-25T06:31:28.983Z,14.4
2019-05-25T06:32:30.723Z,14.5
2019-05-25T06:33:32.106Z,14.6
2019-05-25T06:34:33.502Z,14.7
2019-05-25T06:35:34.926Z,14.7
2019-05-25T06:36:36.320Z,14.7
2019-05-25T06:37:37.846Z,14.8
2019-05-25T06:38:39.244Z,14.8
2019-05-25T06:39:40.688Z,14.8
2019-05-25T06:40:42.073Z,14.8
2019-05-25T06:41:43.466Z,14.9
2019-05-25T06:42:44.885Z,14.9
2019-05-25T06:43:46.270Z,14.9
2019-05-25T06:44:47.667Z,14.9
2019-05-25T06:45:49.061Z,14.9
2019-05-25T06:46:50.449Z,14.9
2019-05-25T06:47:51.856Z,14.9
2019-05-25T06:48:53.234Z,14.9
2019-05-25T06:49:54.631Z,15.0
2019-05-25T06:50:56.030Z,15.0
2019-05-25T06:51:57.423Z,15.0
2019-05-25T06:52:58.833Z,14.9
2019-05-25T06:54:00.224Z,15.0
2019-05-25T06:55:01.614Z,15.0
2019-05-25T06:56:03.085Z,15.1
2019-05-25T06:57:04.515Z,15.1
2019-05-25T06:58:05.906Z,15.2
2019-05-25T06:59:07.298Z,15.2
2019-05-25T07:00:08.693Z,15.2
2019-05-25T07:01:10.089Z,15.2
2019-05-25T07:02:11.481Z,15.2
2019-05-25T07:03:12.871Z,15.3
2019-05-25T07:04:14.264Z,15.3
2019-05-25T07:05:15.667Z,15.3
2019-05-25T07:06:17.063Z,15.4
2019-05-25T07:07:18.461Z,15.4
2019-05-25T07:08:19.855Z,15.5
2019-05-25T07:09:21.249Z,15.6
2019-05-25T07:10:22.856Z,15.7
2019-05-25T07:11:24.900Z,15.8
2019-05-25T07:12:26.296Z,15.8
2019-05-25T07:13:28.557Z,15.8
2019-05-25T07:14:29.046Z,15.9
2019-05-25T07:15:30.446Z,15.9
2019-05-25T07:16:31.857Z,16.0
2019-05-25T07:17:33.256Z,16.0
2019-05-25T07:18:35.595Z,16.0
2019-05-25T07:19:36.072Z,16.2
2019-05-25T07:20:37.463Z,16.2
2019-05-25T07:21:38.861Z,16.3
2019-05-25T07:22:40.256Z,16.4
2019-05-25T07:23:41.646Z,16.3
2019-05-25T07:24:43.038Z,16.5
2019-05-25T07:25:44.440Z,16.5
2019-05-25T07:26:46.140Z,16.6
2019-05-25T07:27:58.775Z,16.6
2019-05-25T07:28:48.904Z,16.7
2019-05-25T07:29:50.300Z,16.8
2019-05-25T07:30:51.696Z,16.7
2019-05-25T07:31:53.086Z,16.8
2019-05-25T07:32:54.480Z,16.8
2019-05-25T07:33:55.873Z,16.8
2019-05-25T07:34:57.266Z,16.9
2019-05-25T07:35:58.664Z,16.9
2019-05-25T07:37:00.058Z,16.9
2019-05-25T07:38:01.456Z,17.0
2019-05-25T07:39:02.850Z,17.1
2019-05-25T07:40:04.241Z,17.2
2019-05-25T07:41:05.637Z,17.2
2019-05-25T07:42:07.101Z,17.3
2019-05-25T07:43:08.623Z,17.3
2019-05-25T07:44:10.018Z,17.4
2019-05-25T07:45:11.410Z,17.4
2019-05-25T07:46:12.802Z,17.5
2019-05-25T07:47:14.202Z,17.4
2019-05-25T07:48:15.599Z,17.7
2019-05-25T07:49:16.998Z,17.7
2019-05-25T07:50:18.394Z,17.9
2019-05-25T07:51:19.797Z,17.9
2019-05-25T07:52:21.192Z,17.9
2019-05-25T07:53:22.589Z,18.0
2019-05-25T07:54:23.989Z,18.1
2019-05-25T07:55:25.383Z,18.1
2019-05-25T07:56:26.782Z,18.0
2019-05-25T07:57:28.711Z,18.0
2019-05-25T07:58:29.579Z,18.0
2019-05-25T07:59:30.972Z,18.0
2019-05-25T08:00:32.365Z,17.9
2019-05-25T08:01:33.764Z,17.9
2019-05-25T08:02:35.160Z,17.9
2019-05-25T08:03:39.631Z,18.0
2019-05-25T08:04:38.895Z,17.9
2019-05-25T08:05:40.328Z,17.9
2019-05-25T08:06:41.720Z,17.9
2019-05-25T08:07:43.117Z,17.9
2019-05-25T08:08:44.517Z,17.9
2019-05-25T08:09:45.912Z,18.0
2019-05-25T08:10:47.313Z,18.0
2019-05-25T08:11:48.728Z,18.2
2019-05-25T08:12:50.113Z,18.2
2019-05-25T08:13:51.507Z,18.3
2019-05-25T08:14:52.901Z,18.4
2019-05-25T08:15:54.295Z,18.5
2019-05-25T08:16:55.700Z,18.6
2019-05-25T08:17:57.110Z,18.5
2019-05-25T08:18:58.512Z,18.6
2019-05-25T08:19:59.919Z,18.6
2019-05-25T08:21:01.464Z,18.6
2019-05-25T08:22:02.834Z,18.6
2019-05-25T08:23:04.230Z,18.6
2019-05-25T08:24:05.625Z,18.6
2019-05-25T08:25:07.024Z,18.6
2019-05-25T08:26:08.419Z,18.6
2019-05-25T08:27:09.940Z,18.7
2019-05-25T08:28:11.339Z,18.8
2019-05-25T08:29:12.742Z,18.9
2019-05-25T08:30:14.137Z,19.1
2019-05-25T08:31:15.533Z,19.1
2019-05-25T08:32:16.928Z,19.1
2019-05-25T08:33:18.332Z,19.2
2019-05-25T08:34:19.725Z,19.1
2019-05-25T08:35:21.120Z,19.2
2019-05-25T08:36:22.520Z,19.3
2019-05-25T08:37:23.913Z,19.3
2019-05-25T08:38:25.327Z,19.2
2019-05-25T08:39:26.724Z,19.2
2019-05-25T08:40:28.126Z,19.3
2019-05-25T08:41:29.521Z,19.3
2019-05-25T08:42:30.991Z,19.3
2019-05-25T08:43:32.436Z,19.5
2019-05-25T08:44:33.833Z,19.5
2019-05-25T08:45:35.230Z,19.4
2019-05-25T08:46:36.631Z,19.6
2019-05-25T08:47:38.070Z,19.7
2019-05-25T08:48:39.470Z,19.8
2019-05-25T08:49:40.865Z,20.1
2019-05-25T08:50:42.263Z,20.1
2019-05-25T08:51:43.658Z,20.2
2019-05-25T08:52:45.072Z,20.2
2019-05-25T08:53:46.830Z,20.3
2019-05-25T08:54:47.836Z,20.4
2019-05-25T08:55:49.231Z,20.3
2019-05-25T08:56:50.651Z,20.3
2019-05-25T08:57:52.021Z,20.3
2019-05-25T08:58:55.457Z,20.3
2019-05-25T08:59:54.809Z,20.3
2019-05-25T09:00:56.207Z,20.4
2019-05-25T09:01:57.606Z,20.4
2019-05-25T09:02:59.018Z,20.7
2019-05-25T09:04:00.417Z,20.7
2019-05-25T09:05:01.812Z,20.7
2019-05-25T09:06:03.228Z,20.7
2019-05-25T09:07:04.628Z,20.7
2019-05-25T09:08:06.024Z,20.7
2019-05-25T09:09:07.466Z,20.7
2019-05-25T09:10:08.867Z,20.7
2019-05-25T09:11:10.258Z,20.8
2019-05-25T09:12:11.656Z,20.7
2019-05-25T09:13:13.201Z,20.8
2019-05-25T09:14:14.597Z,20.9
2019-05-25T09:15:16.080Z,20.9
2019-05-25T09:16:17.460Z,20.9
2019-05-25T09:17:18.858Z,21.0
2019-05-25T09:18:20.253Z,20.9
2019-05-25T09:19:21.649Z,20.8
2019-05-25T09:20:23.116Z,20.9
2019-05-25T09:21:24.567Z,21.0
2019-05-25T09:22:25.977Z,21.2
2019-05-25T09:23:27.377Z,21.4
2019-05-25T09:24:28.790Z,21.4
2019-05-25T09:25:30.190Z,21.5
2019-05-25T09:26:31.618Z,21.5
2019-05-25T09:27:33.013Z,21.6
2019-05-25T09:28:34.446Z,21.5
2019-05-25T09:29:35.847Z,21.6
2019-05-25T09:30:37.244Z,21.6
2019-05-25T09:31:38.706Z,21.6
2019-05-25T09:32:40.053Z,21.6
2019-05-25T09:33:41.450Z,21.7
2019-05-25T09:34:42.860Z,21.7
2019-05-25T09:35:44.284Z,21.5
2019-05-25T09:36:45.682Z,21.5
2019-05-25T09:37:47.081Z,21.3
2019-05-25T09:38:48.480Z,21.4
2019-05-25T09:39:49.878Z,21.4
2019-05-25T09:40:51.344Z,21.3
2019-05-25T09:41:52.792Z,21.3
2019-05-25T09:42:54.208Z,21.3
2019-05-25T09:43:55.596Z,21.3
2019-05-25T09:44:57.001Z,21.3
2019-05-25T09:45:58.424Z,21.3
2019-05-25T09:46:59.845Z,21.4
2019-05-25T09:48:01.238Z,21.4
2019-05-25T09:49:02.636Z,21.3
2019-05-25T09:50:04.037Z,21.4
2019-05-25T09:51:05.434Z,21.3
2019-05-25T09:52:06.874Z,21.4
2019-05-25T09:53:08.303Z,21.4
2019-05-25T09:54:09.702Z,21.3
2019-05-25T09:55:11.180Z,21.2
2019-05-25T09:56:12.566Z,21.2
2019-05-25T09:57:13.961Z,21.2
2019-05-25T09:58:15.449Z,21.3
2019-05-25T09:59:20.152Z,21.2
2019-05-25T10:00:18.289Z,21.2
2019-05-25T10:01:19.662Z,21.4
2019-05-25T10:02:21.066Z,21.4
2019-05-25T10:03:22.463Z,21.4
2019-05-25T10:04:23.862Z,21.4
2019-05-25T10:05:25.261Z,21.6
2019-05-25T10:06:26.664Z,21.7
2019-05-25T10:07:28.062Z,21.7
2019-05-25T10:08:29.464Z,21.8
2019-05-25T10:09:30.858Z,21.8
2019-05-25T10:10:32.257Z,21.9
2019-05-25T10:11:33.689Z,21.8
2019-05-25T10:12:35.080Z,21.9
2019-05-25T10:13:36.489Z,22.0
2019-05-25T10:14:37.885Z,22.1
2019-05-25T10:15:39.285Z,22.4
2019-05-25T10:16:40.681Z,22.4
2019-05-25T10:17:42.078Z,22.6
2019-05-25T10:18:43.480Z,22.7
2019-05-25T10:19:44.877Z,22.7
2019-05-25T10:20:46.277Z,22.7
2019-05-25T10:21:47.676Z,22.8
2019-05-25T10:22:49.072Z,22.8
2019-05-25T10:23:50.486Z,22.9
2019-05-25T10:24:51.882Z,23.0
2019-05-25T10:25:53.280Z,23.1
2019-05-25T10:26:54.687Z,23.2
2019-05-25T10:27:56.088Z,23.5
2019-05-25T10:28:57.490Z,23.6
2019-05-25T10:29:58.919Z,23.5
2019-05-25T10:31:00.288Z,23.6
2019-05-25T10:32:01.708Z,23.6
2019-05-25T10:33:03.088Z,23.7
2019-05-25T10:34:04.483Z,23.8
2019-05-25T10:35:05.884Z,23.9
2019-05-25T10:36:07.298Z,24.1
2019-05-25T10:37:08.706Z,24.2
2019-05-25T10:38:10.104Z,24.2
2019-05-25T10:39:11.512Z,24.1
2019-05-25T10:40:12.907Z,24.2
2019-05-25T10:41:14.316Z,24.1
2019-05-25T10:42:15.717Z,24.2
2019-05-25T10:43:17.115Z,24.2
2019-05-25T10:44:18.655Z,24.1
2019-05-25T10:45:20.161Z,24.1
2019-05-25T10:46:21.565Z,24.0
2019-05-25T10:47:22.964Z,23.9
2019-05-25T10:48:24.364Z,23.9
2019-05-25T10:49:25.766Z,23.9
2019-05-25T10:50:27.169Z,23.9
2019-05-25T10:51:28.567Z,24.0
2019-05-25T10:52:29.976Z,24.0
2019-05-25T10:53:31.381Z,23.9
2019-05-25T10:54:32.782Z,24.0
2019-05-25T10:55:34.181Z,24.1
2019-05-25T10:56:35.578Z,24.3
2019-05-25T10:57:36.982Z,24.2
2019-05-25T10:58:38.384Z,24.2
2019-05-25T10:59:51.977Z,24.3
2019-05-25T11:00:41.216Z,24.4
2019-05-25T11:01:42.608Z,24.6
2019-05-25T11:02:44.011Z,24.6
2019-05-25T11:03:45.409Z,24.5
2019-05-25T11:04:46.812Z,24.3
2019-05-25T11:05:48.242Z,24.2
2019-05-25T11:06:49.609Z,24.4
2019-05-25T11:07:51.015Z,24.4
2019-05-25T11:08:52.414Z,24.5
2019-05-25T11:09:53.814Z,24.4
2019-05-25T11:10:55.216Z,24.4
2019-05-25T11:11:56.615Z,24.6
2019-05-25T11:12:58.014Z,24.7
2019-05-25T11:13:59.410Z,24.8
2019-05-25T11:15:00.817Z,24.9
2019-05-25T11:16:02.216Z,24.9
2019-05-25T11:17:03.616Z,24.9
2019-05-25T11:18:05.039Z,25.0
2019-05-25T11:19:06.417Z,25.1
2019-05-25T11:20:07.875Z,25.0
2019-05-25T11:21:09.276Z,25.1
2019-05-25T11:22:11.651Z,25.3
2019-05-25T11:23:13.054Z,25.4
2019-05-25T11:24:14.462Z,25.6
2019-05-25T11:25:15.877Z,25.8
2019-05-25T11:26:17.276Z,26.1
2019-05-25T11:27:18.675Z,26.2
2019-05-25T11:28:20.084Z,26.1
2019-05-25T11:29:21.561Z,26.1
2019-05-25T11:30:23.073Z,26.1
2019-05-25T11:31:24.477Z,25.9
2019-05-25T11:32:25.879Z,25.9
2019-05-25T11:33:27.279Z,25.9
2019-05-25T11:34:28.677Z,25.9
2019-05-25T11:35:30.078Z,26.0
2019-05-25T11:36:31.476Z,26.1
2019-05-25T11:37:32.939Z,26.2
2019-05-25T11:38:34.343Z,26.3
2019-05-25T11:39:35.798Z,26.4
2019-05-25T11:40:37.199Z,26.6
2019-05-25T11:41:38.599Z,26.7
2019-05-25T11:42:40.000Z,26.7
2019-05-25T11:43:41.399Z,26.7
2019-05-25T11:44:42.805Z,26.7
2019-05-25T11:45:45.472Z,26.7
2019-05-25T11:46:45.574Z,26.7
2019-05-25T11:47:46.977Z,26.8
2019-05-25T11:48:48.393Z,26.9
2019-05-25T11:49:49.791Z,26.9
2019-05-25T11:50:51.196Z,27.1
2019-05-25T11:51:52.624Z,27.1
2019-05-25T11:52:54.057Z,27.1
2019-05-25T11:53:55.500Z,27.3
2019-05-25T11:54:56.905Z,27.5
2019-05-25T11:55:58.307Z,27.4
2019-05-25T11:56:59.711Z,27.4
2019-05-25T11:58:01.149Z,27.4
2019-05-25T11:59:02.544Z,27.4
2019-05-25T12:00:03.946Z,27.1
2019-05-25T12:01:05.349Z,27.0
2019-05-25T12:02:06.751Z,27.1
2019-05-25T12:03:08.155Z,27.1
2019-05-25T12:04:09.556Z,27.0
2019-05-25T12:05:11.025Z,27.2
2019-05-25T12:06:12.416Z,27.2
2019-05-25T12:07:13.829Z,27.3
2019-05-25T12:08:15.230Z,27.3
2019-05-25T12:09:16.635Z,27.3
2019-05-25T12:10:18.051Z,27.3
2019-05-25T12:11:19.458Z,27.4
2019-05-25T12:12:20.863Z,27.5
2019-05-25T12:13:22.266Z,27.6
2019-05-25T12:14:23.664Z,27.6
2019-05-25T12:15:25.133Z,27.7
2019-05-25T12:16:26.653Z,27.7
2019-05-25T12:17:28.085Z,27.8
2019-05-25T12:18:29.462Z,27.8
2019-05-25T12:19:30.866Z,27.8
2019-05-25T12:20:32.272Z,27.5
2019-05-25T12:21:33.682Z,27.4
2019-05-25T12:22:35.088Z,27.3
2019-05-25T12:23:36.491Z,27.3
2019-05-25T12:24:37.900Z,27.3
2019-05-25T12:25:39.350Z,27.2
2019-05-25T12:26:40.775Z,26.8
2019-05-25T12:27:42.181Z,26.8
2019-05-25T12:28:43.581Z,26.8
2019-05-25T12:29:44.985Z,26.9
2019-05-25T12:30:46.416Z,26.9
2019-05-25T12:31:47.789Z,27.2
2019-05-25T12:32:49.194Z,27.9
2019-05-25T12:33:50.658Z,29.0
2019-05-25T12:34:52.072Z,29.5
2019-05-25T12:35:53.517Z,30.0
2019-05-25T12:36:54.919Z,30.1
2019-05-25T12:37:56.415Z,29.6
2019-05-25T12:38:57.799Z,29.4
2019-05-25T12:39:59.251Z,29.0
2019-05-25T12:41:00.648Z,28.9
2019-05-25T12:42:02.070Z,28.9
2019-05-25T12:43:03.454Z,28.8
2019-05-25T12:44:04.861Z,28.9
2019-05-25T12:45:06.267Z,28.9
2019-05-25T12:46:07.701Z,28.9
2019-05-25T12:47:09.101Z,29.1
2019-05-25T12:48:10.505Z,29.0
2019-05-25T12:49:11.920Z,28.9
2019-05-25T12:50:13.351Z,28.9
2019-05-25T12:51:17.603Z,28.8
2019-05-25T12:52:16.206Z,28.6
2019-05-25T12:53:17.606Z,28.5
2019-05-25T12:54:19.063Z,28.5
2019-05-25T12:55:20.503Z,28.4
2019-05-25T12:56:21.914Z,28.5
2019-05-25T12:57:24.236Z,28.6
2019-05-25T12:58:24.720Z,28.7
2019-05-25T12:59:26.121Z,28.6
2019-05-25T13:00:27.518Z,28.4
2019-05-25T13:01:28.935Z,28.0
2019-05-25T13:02:30.466Z,28.2
2019-05-25T13:03:31.888Z,28.2
2019-05-25T13:04:33.291Z,28.3
2019-05-25T13:05:34.862Z,28.3
2019-05-25T13:06:36.065Z,28.4
2019-05-25T13:07:37.484Z,28.2
2019-05-25T13:08:38.887Z,28.0
2019-05-25T13:09:41.307Z,27.7
2019-05-25T13:10:42.715Z,27.7
2019-05-25T13:11:44.146Z,27.7
2019-05-25T13:12:45.552Z,27.9
2019-05-25T13:13:46.964Z,28.1
2019-05-25T13:14:48.371Z,28.0
2019-05-25T13:15:49.859Z,27.8
2019-05-25T13:16:51.263Z,27.7
2019-05-25T13:17:52.700Z,27.6
2019-05-25T13:18:54.103Z,27.4
2019-05-25T13:19:55.600Z,27.3
2019-05-25T13:20:57.007Z,27.1
2019-05-25T13:21:58.407Z,26.9
2019-05-25T13:22:59.806Z,26.6
2019-05-25T13:24:01.207Z,26.4
2019-05-25T13:25:02.619Z,26.5
2019-05-25T13:26:04.031Z,26.6
2019-05-25T13:27:05.443Z,26.9
2019-05-25T13:28:06.877Z,27.0
2019-05-25T13:29:08.314Z,27.0
2019-05-25T13:30:09.726Z,26.9
2019-05-25T13:31:12.242Z,26.9
2019-05-25T13:32:12.519Z,26.6
2019-05-25T13:33:13.915Z,26.4
2019-05-25T13:34:15.339Z,26.3
2019-05-25T13:35:16.750Z,26.2
2019-05-25T13:36:18.162Z,26.1
2019-05-25T13:37:19.619Z,25.9